Time;durP1;ratioP1;P1;durP2;ratioP2;P2;SDS_P1;SDS_P2;PMS_P1;PMS_P2;Temp;Humidity;BMP_temperature;BMP_pressure;BME280_temperature;BME280_humidity;BME280_pressure;Samples;Min_cycle;Max_cycle;Signal;HPM_P1;HPM_P2
2021/10/04 04:01:40;;;;;;;4.53;2.67;;;14.70;99.90;;;;;;5440785;23;20975;-69
2021/10/04 04:04:06;;;;;;;2.50;2.40;;;14.70;99.90;;;;;;5015612;28;20456;-70
2021/10/04 04:06:33;;;;;;;2.77;2.57;;;14.70;99.90;;;;;;5015532;28;20449;-70
2021/10/04 04:09:00;;;;;;;2.93;2.73;;;14.60;99.90;;;;;;5015463;28;20944;-69
2021/10/04 04:11:27;;;;;;;2.30;2.20;;;14.70;99.90;;;;;;5015396;28;20472;-70
2021/10/04 04:13:53;;;;;;;2.27;2.17;;;14.70;99.90;;;;;;5015318;28;21001;-70
2021/10/04 04:16:20;;;;;;;3.10;2.90;;;14.70;99.90;;;;;;5015825;28;20480;-70
2021/10/04 04:18:48;;;;;;;4.40;3.17;;;14.60;99.90;;;;;;5015351;28;20812;-70
2021/10/04 04:21:15;;;;;;;4.40;4.03;;;14.60;99.90;;;;;;5015875;28;20473;-70
2021/10/04 04:23:42;;;;;;;2.90;2.67;;;14.50;99.90;;;;;;5015410;28;20484;-70
2021/10/04 04:26:08;;;;;;;3.77;3.53;;;14.50;99.90;;;;;;5014983;28;20503;-70
2021/10/04 04:28:35;;;;;;;5.00;3.87;;;14.50;99.90;;;;;;5015078;28;20453;-69
2021/10/04 04:31:03;;;;;;;4.60;4.20;;;14.50;99.90;;;;;;5015563;28;20481;-70
2021/10/04 04:33:29;;;;;;;4.60;4.20;;;14.50;99.90;;;;;;5014840;28;20441;-70
2021/10/04 04:35:57;;;;;;;5.00;4.60;;;14.50;99.90;;;;;;5014970;28;20453;-70
2021/10/04 04:38:24;;;;;;;5.00;4.60;;;14.40;99.90;;;;;;5015020;28;20452;-69
2021/10/04 04:40:51;;;;;;;5.63;5.20;;;14.40;99.90;;;;;;5014729;28;20832;-69
2021/10/04 04:43:18;;;;;;;5.83;5.33;;;14.40;99.90;;;;;;5014759;28;20975;-69
2021/10/04 04:45:45;;;;;;;5.80;5.30;;;14.30;99.90;;;;;;5014885;28;20460;-70
2021/10/04 04:48:11;;;;;;;5.23;4.73;;;14.30;99.90;;;;;;5015244;28;20452;-69
2021/10/04 04:50:38;;;;;;;5.30;5.00;;;14.30;99.90;;;;;;5014740;28;20570;-69
2021/10/04 04:53:06;;;;;;;5.83;5.43;;;14.30;99.90;;;;;;5013871;28;20452;-69
2021/10/04 04:55:33;;;;;;;6.77;6.20;;;14.30;99.90;;;;;;5015184;28;20464;-68
2021/10/04 04:58:00;;;;;;;8.13;7.50;;;14.30;99.90;;;;;;5014941;28;20646;-68
2021/10/04 05:00:27;;;;;;;7.03;6.43;;;14.20;99.90;;;;;;5014922;28;20452;-69
2021/10/04 05:02:53;;;;;;;8.97;8.03;;;14.30;99.90;;;;;;5014851;28;20484;-69
2021/10/04 05:05:20;;;;;;;7.87;6.57;;;14.20;99.90;;;;;;5015194;28;20527;-68
2021/10/04 05:07:47;;;;;;;6.30;5.90;;;14.20;99.90;;;;;;5014585;28;20962;-68
2021/10/04 05:10:16;;;;;;;6.20;5.80;;;14.30;99.90;;;;;;5014327;28;20453;-69
2021/10/04 05:12:43;;;;;;;6.27;5.70;;;14.30;99.90;;;;;;5015062;28;20524;-68
2021/10/04 05:15:10;;;;;;;5.20;4.90;;;14.30;99.90;;;;;;5015155;28;20456;-69
2021/10/04 05:17:37;;;;;;;5.40;5.10;;;14.30;99.90;;;;;;5015276;28;20452;-69
2021/10/04 05:20:05;;;;;;;5.17;4.67;;;14.30;99.90;;;;;;5016070;28;20457;-67
2021/10/04 05:22:31;;;;;;;4.57;4.27;;;14.30;99.90;;;;;;5015045;28;20481;-68
2021/10/04 05:24:58;;;;;;;4.23;3.90;;;14.30;99.90;;;;;;5014776;28;20453;-68
2021/10/04 05:27:26;;;;;;;4.30;3.90;;;14.40;99.90;;;;;;5014499;28;20453;-69
2021/10/04 05:29:53;;;;;;;3.67;3.37;;;14.40;99.90;;;;;;5014920;28;20464;-69
2021/10/04 05:32:20;;;;;;;3.13;2.93;;;14.30;99.90;;;;;;5014571;28;20477;-68
2021/10/04 05:34:46;;;;;;;3.17;2.97;;;14.20;99.90;;;;;;5014801;28;20452;-68
2021/10/04 05:37:13;;;;;;;3.30;3.00;;;14.30;99.90;;;;;;5014998;28;20464;-69
2021/10/04 05:39:40;;;;;;;3.23;3.03;;;14.30;99.90;;;;;;5015204;28;20452;-69
2021/10/04 05:42:07;;;;;;;3.33;3.13;;;14.50;99.90;;;;;;5014957;28;20480;-69
2021/10/04 05:44:35;;;;;;;3.53;2.60;;;14.50;99.90;;;;;;5014784;28;20444;-70
2021/10/04 05:47:02;;;;;;;3.00;2.80;;;14.60;99.90;;;;;;5014469;28;20966;-70
2021/10/04 05:49:29;;;;;;;3.33;3.13;;;14.60;99.90;;;;;;5014987;28;20460;-70
2021/10/04 05:51:56;;;;;;;3.43;3.13;;;14.70;99.90;;;;;;5014311;28;20472;-70
2021/10/04 05:54:25;;;;;;;3.77;3.47;;;14.80;99.90;;;;;;5015014;28;20453;-69
2021/10/04 05:56:51;;;;;;;3.30;3.03;;;14.80;99.90;;;;;;5014820;28;20495;-69
2021/10/04 05:59:18;;;;;;;4.40;4.07;;;14.80;99.90;;;;;;5014854;28;20452;-69
2021/10/04 06:01:46;;;;;;;4.00;3.80;;;14.70;99.90;;;;;;5014280;28;20485;-69
2021/10/04 06:04:13;;;;;;;4.50;4.20;;;14.80;99.90;;;;;;5017535;28;20480;-69
2021/10/04 06:06:39;;;;;;;5.37;5.07;;;14.70;99.90;;;;;;5026176;28;20813;-69
2021/10/04 06:09:07;;;;;;;6.17;5.77;;;14.80;99.90;;;;;;5022297;28;20456;-69
2021/10/04 06:11:34;;;;;;;6.03;5.50;;;14.60;99.90;;;;;;5021853;28;20468;-70
2021/10/04 06:14:01;;;;;;;5.93;5.53;;;14.70;99.90;;;;;;5025237;28;20936;-70
2021/10/04 06:16:27;;;;;;;5.03;4.73;;;14.80;99.90;;;;;;5024862;28;20469;-67
2021/10/04 06:18:55;;;;;;;4.87;4.47;;;14.80;99.90;;;;;;5028968;28;20449;-67
2021/10/04 06:21:22;;;;;;;4.47;4.07;;;14.60;99.90;;;;;;5023740;28;20479;-68
2021/10/04 06:23:49;;;;;;;5.00;4.50;;;14.50;99.90;;;;;;5020245;28;20486;-69
2021/10/04 06:26:16;;;;;;;4.20;3.97;;;14.40;99.90;;;;;;5018485;28;20826;-69
2021/10/04 06:28:43;;;;;;;4.67;4.37;;;14.20;99.90;;;;;;5018488;28;20459;-69
2021/10/04 06:31:10;;;;;;;4.63;4.33;;;14.10;99.90;;;;;;5017915;28;20501;-69
2021/10/04 06:33:37;;;;;;;4.90;4.60;;;14.00;99.90;;;;;;5021456;28;20444;-69
2021/10/04 06:36:05;;;;;;;5.30;4.90;;;14.00;99.90;;;;;;5017433;28;20452;-70
2021/10/04 06:38:32;;;;;;;4.60;4.30;;;14.00;99.90;;;;;;5017095;28;20460;-70
2021/10/04 06:40:58;;;;;;;5.07;4.67;;;14.00;99.90;;;;;;5016925;28;20472;-68
2021/10/04 06:43:25;;;;;;;6.37;5.97;;;14.00;99.90;;;;;;5017482;28;20477;-70
2021/10/04 06:45:52;;;;;;;7.30;6.70;;;13.90;99.90;;;;;;5020144;28;20457;-70
2021/10/04 06:48:19;;;;;;;6.43;6.03;;;13.90;99.90;;;;;;5017621;28;20460;-68
2021/10/04 06:50:45;;;;;;;7.17;6.67;;;13.80;99.90;;;;;;5018461;28;20476;-69
2021/10/04 06:53:13;;;;;;;7.53;6.93;;;13.80;99.90;;;;;;5017539;28;20453;-69
2021/10/04 06:55:40;;;;;;;6.43;6.03;;;13.80;99.90;;;;;;5017688;28;20460;-69
2021/10/04 06:58:07;;;;;;;6.37;5.77;;;13.90;99.90;;;;;;5017759;28;20544;-68
2021/10/04 07:00:34;;;;;;;6.27;5.67;;;13.80;99.90;;;;;;5016487;28;20491;-68
2021/10/04 07:03:00;;;;;;;5.73;5.33;;;13.80;99.90;;;;;;5017040;28;20465;-68
2021/10/04 07:05:27;;;;;;;5.60;5.17;;;13.70;99.90;;;;;;5016771;28;20457;-68
2021/10/04 07:07:56;;;;;;;4.97;4.57;;;13.70;99.90;;;;;;5016299;28;20457;-69
2021/10/04 07:10:24;;;;;;;4.63;4.33;;;13.70;99.90;;;;;;5016719;28;20936;-70
2021/10/04 07:12:51;;;;;;;5.30;5.00;;;13.70;99.90;;;;;;5016819;28;20456;-69
2021/10/04 07:15:18;;;;;;;3.80;3.60;;;13.70;99.90;;;;;;5015470;28;20993;-69
2021/10/04 07:17:46;;;;;;;3.90;3.60;;;13.80;99.90;;;;;;5016604;28;20468;-69
2021/10/04 07:20:13;;;;;;;3.73;3.47;;;13.80;99.90;;;;;;5016223;28;20859;-71
2021/10/04 07:22:41;;;;;;;4.07;3.77;;;13.80;99.90;;;;;;5016236;28;20461;-68
2021/10/04 07:25:09;;;;;;;3.10;2.90;;;13.80;99.90;;;;;;5016208;28;20485;-69
2021/10/04 07:27:37;;;;;;;2.53;2.33;;;13.80;99.90;;;;;;5016136;28;20457;-68
2021/10/04 07:30:05;;;;;;;2.43;2.33;;;13.80;99.90;;;;;;5015820;28;20944;-70
2021/10/04 07:32:32;;;;;;;4.33;2.60;;;13.90;99.90;;;;;;5017663;28;20476;-71
2021/10/04 07:34:59;;;;;;;3.63;2.83;;;13.90;99.90;;;;;;5015741;28;20958;-71
2021/10/04 07:37:26;;;;;;;2.30;2.20;;;14.00;99.90;;;;;;5015526;28;20924;-70
2021/10/04 07:39:54;;;;;;;3.53;2.23;;;14.10;99.90;;;;;;5015802;28;20453;-70
2021/10/04 07:42:20;;;;;;;2.50;2.40;;;14.10;99.90;;;;;;5015738;28;20484;-70
2021/10/04 07:44:50;;;;;;;2.13;1.80;;;14.10;99.90;;;;;;5015918;28;20488;-70
2021/10/04 07:47:17;;;;;;;2.17;2.07;;;14.20;99.90;;;;;;5015891;28;20453;-70
2021/10/04 07:49:44;;;;;;;2.00;1.93;;;14.10;99.90;;;;;;5015906;28;20456;-70
2021/10/04 07:52:11;;;;;;;1.93;1.83;;;14.10;99.90;;;;;;5015782;28;20472;-69
2021/10/04 07:54:38;;;;;;;1.90;1.80;;;14.20;99.90;;;;;;5015416;28;20456;-67
2021/10/04 07:57:04;;;;;;;1.77;1.67;;;14.10;99.90;;;;;;5017798;28;20464;-68
2021/10/04 07:59:31;;;;;;;1.67;1.67;;;14.10;99.90;;;;;;5016586;28;20453;-69
2021/10/04 08:01:59;;;;;;;1.80;1.70;;;14.10;99.90;;;;;;5015160;28;20489;-69
2021/10/04 08:04:27;;;;;;;1.87;1.77;;;14.00;99.90;;;;;;5015610;28;20477;-69
2021/10/04 08:06:53;;;;;;;1.70;1.50;;;14.10;99.90;;;;;;5015520;28;20452;-69
2021/10/04 08:09:20;;;;;;;1.70;1.70;;;14.10;99.90;;;;;;5015426;28;20456;-69
2021/10/04 08:11:47;;;;;;;1.23;1.23;;;14.10;99.90;;;;;;5015344;28;20473;-69
2021/10/04 08:14:14;;;;;;;1.70;1.60;;;14.00;99.90;;;;;;5015507;28;20806;-69
2021/10/04 08:16:41;;;;;;;1.53;1.53;;;14.00;99.90;;;;;;5015584;28;20457;-69
2021/10/04 08:19:09;;;;;;;1.97;1.87;;;14.10;99.90;;;;;;5016030;28;20805;-68
2021/10/04 08:21:36;;;;;;;1.67;1.63;;;14.20;99.90;;;;;;5017796;28;20998;-69
2021/10/04 08:24:03;;;;;;;1.90;1.80;;;14.10;99.90;;;;;;5015455;28;20883;-68
2021/10/04 08:26:31;;;;;;;2.00;1.90;;;14.20;99.90;;;;;;5015246;28;20464;-68
2021/10/04 08:28:58;;;;;;;1.43;1.43;;;14.30;99.90;;;;;;5014852;28;20487;-68
2021/10/04 08:31:29;;;;;;;2.50;1.80;;;14.30;99.90;;;;;;5015530;28;20476;-70
2021/10/04 08:33:57;;;;;;;1.70;1.70;;;14.30;99.90;;;;;;5015305;28;20772;-69
2021/10/04 08:36:25;;;;;;;1.63;1.63;;;14.30;99.90;;;;;;5015097;28;20507;-69
2021/10/04 08:38:52;;;;;;;1.63;1.53;;;14.30;99.90;;;;;;5014964;28;20460;-69
2021/10/04 08:41:19;;;;;;;2.00;1.90;;;14.20;99.90;;;;;;5014758;28;21003;-69
2021/10/04 08:43:49;;;;;;;1.57;1.47;;;14.20;99.90;;;;;;5014802;28;20472;-69
2021/10/04 08:46:16;;;;;;;1.50;1.40;;;14.20;99.90;;;;;;5014968;28;20437;-69
2021/10/04 08:48:45;;;;;;;2.17;1.97;;;14.10;99.90;;;;;;5015581;28;20480;-68
2021/10/04 08:51:11;;;;;;;1.40;1.30;;;14.10;99.90;;;;;;5014364;28;20472;-68
2021/10/04 08:53:40;;;;;;;1.60;1.50;;;14.10;99.90;;;;;;5014765;28;20448;-68
2021/10/04 08:56:07;;;;;;;5.97;1.80;;;14.10;99.90;;;;;;5014669;28;20480;-68
2021/10/04 08:58:35;;;;;;;1.93;1.83;;;14.00;99.90;;;;;;5024074;28;20461;-68
2021/10/04 09:01:03;;;;;;;1.77;1.50;;;14.00;99.90;;;;;;5022711;28;20852;-68
2021/10/04 09:03:43;;;;;;;1.63;1.53;;;14.10;99.90;;;;;;5015214;28;20459;-68
2021/10/04 09:06:25;;;;;;;1.83;1.73;;;14.20;99.90;;;;;;5016432;28;20496;-68
2021/10/04 09:08:54;;;;;;;1.53;1.53;;;14.20;99.90;;;;;;5016019;28;20433;-68
2021/10/04 09:11:33;;;;;;;2.00;1.73;;;14.30;99.90;;;;;;5014750;28;20484;-68
2021/10/04 09:14:04;;;;;;;1.67;1.57;;;14.30;99.90;;;;;;5014178;28;20779;-69
2021/10/04 09:16:53;;;;;;;1.63;1.53;;;14.30;99.90;;;;;;5014307;28;20805;-69
2021/10/04 09:19:22;;;;;;;1.50;1.40;;;14.40;99.90;;;;;;5020495;28;20463;-67
2021/10/04 09:22:02;;;;;;;1.80;1.70;;;14.40;99.90;;;;;;5015677;28;20469;-70
2021/10/04 09:24:31;;;;;;;1.80;1.70;;;14.40;99.90;;;;;;5014383;28;20468;-70
2021/10/04 09:26:58;;;;;;;1.30;1.30;;;14.50;99.90;;;;;;5014138;28;20453;-69
2021/10/04 09:29:26;;;;;;;1.47;1.47;;;14.60;99.90;;;;;;5014818;28;20464;-68
2021/10/04 09:31:53;;;;;;;1.30;1.20;;;14.60;99.90;;;;;;5014204;28;20508;-67
2021/10/04 09:34:21;;;;;;;1.70;1.60;;;14.60;99.90;;;;;;5014721;28;20437;-68
2021/10/04 09:36:51;;;;;;;1.83;1.33;;;14.70;99.90;;;;;;5014491;28;20456;-67
2021/10/04 09:39:24;;;;;;;1.60;1.50;;;14.60;99.90;;;;;;5016589;28;20926;-69
2021/10/04 09:42:04;;;;;;;1.40;1.30;;;14.70;99.90;;;;;;5018845;28;20480;-68
2021/10/04 09:44:43;;;;;;;1.40;1.30;;;14.70;99.90;;;;;;5018460;28;20467;-69
2021/10/04 09:47:11;;;;;;;1.87;1.70;;;14.70;99.90;;;;;;5018350;28;20444;-69
2021/10/04 09:49:58;;;;;;;0.93;0.93;;;14.70;99.90;;;;;;5018415;28;20452;-69
2021/10/04 09:52:37;;;;;;;1.30;1.30;;;14.70;99.90;;;;;;5019935;28;20476;-69
2021/10/04 09:55:20;;;;;;;1.40;1.40;;;14.80;99.90;;;;;;5018296;28;20437;-69
2021/10/04 09:57:57;;;;;;;1.30;1.20;;;14.90;99.90;;;;;;5017805;28;20441;-69
2021/10/04 10:00:24;;;;;;;1.60;1.00;;;14.90;99.90;;;;;;5017167;28;20923;-70
2021/10/04 10:02:55;;;;;;;1.30;1.20;;;14.80;99.90;;;;;;5017962;28;20441;-70
2021/10/04 10:05:23;;;;;;;1.30;1.30;;;14.60;99.90;;;;;;5017644;28;20500;-70
2021/10/04 10:07:50;;;;;;;1.33;1.27;;;14.60;99.90;;;;;;5018074;28;20488;-69
2021/10/04 10:10:17;;;;;;;2.43;1.33;;;14.70;99.90;;;;;;5018825;28;20834;-70
2021/10/04 10:12:44;;;;;;;1.00;1.00;;;14.80;99.90;;;;;;5017641;28;20939;-70
2021/10/04 10:15:19;;;;;;;1.10;1.10;;;14.90;99.90;;;;;;5017695;28;20467;-69
2021/10/04 10:17:48;;;;;;;1.03;0.90;;;15.00;99.90;;;;;;5017716;28;20443;-68
2021/10/04 10:20:18;;;;;;;1.00;1.00;;;15.10;99.90;;;;;;5017537;28;20456;-68
2021/10/04 10:22:47;;;;;;;1.03;1.00;;;15.10;99.90;;;;;;5017665;28;20448;-69
2021/10/04 10:25:30;;;;;;;0.60;0.60;;;15.20;99.90;;;;;;5017778;28;20483;-69
2021/10/04 10:27:57;;;;;;;0.90;0.80;;;15.30;99.90;;;;;;5016290;28;20464;-68
2021/10/04 10:30:26;;;;;;;1.00;1.00;;;15.40;99.90;;;;;;5017472;28;20453;-70
2021/10/04 10:32:55;;;;;;;0.80;0.80;;;15.50;99.90;;;;;;5017694;28;20456;-69
2021/10/04 10:35:47;;;;;;;0.70;0.70;;;15.40;99.90;;;;;;5017316;28;20437;-69
2021/10/04 10:38:14;;;;;;;1.50;0.80;;;15.50;99.90;;;;;;5017235;28;20796;-69
2021/10/04 10:40:41;;;;;;;1.57;1.47;;;15.70;99.90;;;;;;5017075;28;21015;-68
2021/10/04 10:43:10;;;;;;;0.83;0.80;;;15.70;99.90;;;;;;5017224;28;20449;-68
2021/10/04 10:45:47;;;;;;;0.77;0.77;;;15.60;99.90;;;;;;5016820;28;21077;-69
2021/10/04 10:48:14;;;;;;;1.30;1.30;;;15.60;99.90;;;;;;5016931;28;20448;-69
2021/10/04 10:50:43;;;;;;;1.27;1.17;;;15.50;99.90;;;;;;5016663;28;20995;-68
2021/10/04 10:53:20;;;;;;;1.50;0.90;;;15.60;99.90;;;;;;5016641;28;20940;-69
2021/10/04 10:55:53;;;;;;;1.53;1.00;;;15.50;99.90;;;;;;5016645;28;20465;-68
2021/10/04 10:58:23;;;;;;;1.00;1.00;;;15.70;99.90;;;;;;5016860;28;20433;-68
2021/10/04 11:01:13;;;;;;;1.00;1.00;;;15.70;99.90;;;;;;5016638;28;20504;-68
2021/10/04 11:03:49;;;;;;;1.10;1.10;;;15.80;99.90;;;;;;5016909;28;20453;-68
2021/10/04 11:06:16;;;;;;;1.63;1.50;;;16.00;99.90;;;;;;5017636;28;20469;-69
2021/10/04 11:08:59;;;;;;;1.20;1.10;;;16.10;99.90;;;;;;5016982;28;20457;-69
2021/10/04 11:11:31;;;;;;;0.87;0.80;;;16.10;99.90;;;;;;5015291;28;20473;-68
2021/10/04 11:14:13;;;;;;;1.30;1.13;;;16.10;99.90;;;;;;5016573;28;20433;-69
2021/10/04 11:17:02;;;;;;;0.90;0.90;;;16.10;99.90;;;;;;5016643;28;20437;-69
2021/10/04 11:19:38;;;;;;;1.13;1.10;;;16.10;99.90;;;;;;5016469;28;20437;-69
2021/10/04 11:22:21;;;;;;;0.60;0.60;;;16.10;99.90;;;;;;5018013;28;20468;-69
2021/10/04 11:24:48;;;;;;;0.80;0.80;;;16.10;99.90;;;;;;5019078;28;20473;-68
2021/10/04 11:27:17;;;;;;;0.90;0.90;;;16.10;99.90;;;;;;5016497;28;20463;-68
2021/10/04 11:29:44;;;;;;;0.93;0.90;;;16.10;99.90;;;;;;5016953;28;20457;-68
2021/10/04 11:32:17;;;;;;;0.90;0.90;;;16.10;99.90;;;;;;5016481;28;20472;-68
2021/10/04 11:34:44;;;;;;;1.17;1.17;;;16.10;99.90;;;;;;5016440;28;20822;-68
2021/10/04 11:37:11;;;;;;;0.90;0.90;;;16.10;99.90;;;;;;5015840;28;20470;-68
2021/10/04 11:39:37;;;;;;;0.90;0.90;;;16.20;99.90;;;;;;5016015;28;20461;-69
2021/10/04 11:42:07;;;;;;;1.33;1.23;;;16.20;99.90;;;;;;5015910;28;20987;-69
2021/10/04 11:44:36;;;;;;;0.93;0.93;;;16.20;99.90;;;;;;5016019;28;20483;-69
2021/10/04 11:47:05;;;;;;;1.20;1.00;;;16.10;99.90;;;;;;5016186;28;20457;-69
2021/10/04 11:49:36;;;;;;;1.37;1.17;;;16.00;99.90;;;;;;5016303;28;20576;-69
2021/10/04 11:52:06;;;;;;;1.53;1.43;;;16.00;99.90;;;;;;5015559;28;20987;-71
2021/10/04 11:54:39;;;;;;;1.50;1.40;;;16.00;99.90;;;;;;5015741;28;20449;-69
2021/10/04 11:57:08;;;;;;;1.10;1.10;;;16.00;99.90;;;;;;5015695;28;20448;-69
2021/10/04 11:59:53;;;;;;;1.00;1.00;;;16.10;99.90;;;;;;5015975;28;20456;-69
2021/10/04 12:02:23;;;;;;;1.50;1.50;;;16.10;99.90;;;;;;5014796;28;20495;-69
2021/10/04 12:04:51;;;;;;;1.70;1.70;;;15.90;99.90;;;;;;5015463;28;20477;-69
2021/10/04 12:07:20;;;;;;;1.50;1.50;;;15.90;99.90;;;;;;5015320;28;20495;-69
2021/10/04 12:09:55;;;;;;;1.20;1.20;;;15.90;99.90;;;;;;5015274;28;20492;-69
2021/10/04 12:12:22;;;;;;;1.67;1.57;;;15.80;99.90;;;;;;5015661;28;20476;-69
2021/10/04 12:14:49;;;;;;;1.60;1.50;;;15.90;99.90;;;;;;5015538;28;20460;-69
2021/10/04 12:17:16;;;;;;;1.60;1.10;;;16.00;99.90;;;;;;5015594;28;20459;-69
2021/10/04 12:19:45;;;;;;;4.90;1.40;;;16.10;99.90;;;;;;5015396;28;20448;-69
2021/10/04 12:22:28;;;;;;;1.30;1.30;;;16.10;99.90;;;;;;5015382;28;20480;-69
2021/10/04 12:24:54;;;;;;;1.67;1.57;;;16.20;99.90;;;;;;5015342;28;20471;-69
2021/10/04 12:27:22;;;;;;;1.40;1.40;;;16.40;99.90;;;;;;5015000;28;20914;-69
2021/10/04 12:29:51;;;;;;;1.00;1.00;;;16.40;99.90;;;;;;5014739;28;20459;-69
2021/10/04 12:32:21;;;;;;;1.23;1.20;;;16.40;99.90;;;;;;5014710;28;20477;-69
2021/10/04 12:35:09;;;;;;;1.40;1.30;;;16.40;99.90;;;;;;5015379;28;20932;-69
2021/10/04 12:37:39;;;;;;;1.43;1.10;;;16.40;99.90;;;;;;5014925;28;20457;-69
2021/10/04 12:40:29;;;;;;;1.97;1.90;;;16.40;99.90;;;;;;5014619;28;20457;-69
2021/10/04 12:43:01;;;;;;;3.90;3.57;;;16.50;99.90;;;;;;5015002;28;20457;-69
2021/10/04 12:45:28;;;;;;;3.73;3.33;;;16.50;99.90;;;;;;5015169;28;20461;-69
2021/10/04 12:47:57;;;;;;;3.17;2.90;;;16.60;99.90;;;;;;5015096;28;20810;-69
2021/10/04 12:50:25;;;;;;;1.57;1.47;;;16.70;99.90;;;;;;5014756;28;20487;-70
2021/10/04 12:52:54;;;;;;;1.63;1.53;;;16.70;99.90;;;;;;5014984;28;20448;-70
2021/10/04 12:55:22;;;;;;;2.13;1.93;;;16.90;99.90;;;;;;5017464;28;20484;-69
2021/10/04 12:57:53;;;;;;;1.90;1.80;;;17.10;99.90;;;;;;5015024;28;20460;-69
2021/10/04 13:00:29;;;;;;;2.07;1.97;;;17.10;99.90;;;;;;5014193;28;20452;-70
2021/10/04 13:02:58;;;;;;;2.50;2.30;;;17.30;99.90;;;;;;5015083;28;20437;-69
2021/10/04 13:05:25;;;;;;;1.90;1.80;;;17.30;99.90;;;;;;5014626;28;20496;-69
2021/10/04 13:07:53;;;;;;;1.90;1.80;;;17.20;99.90;;;;;;5014661;28;20461;-69
2021/10/04 13:10:20;;;;;;;2.13;1.47;;;17.40;99.90;;;;;;5014972;28;20456;-70
2021/10/04 13:12:50;;;;;;;1.47;1.47;;;17.40;99.90;;;;;;5014927;28;20459;-69
2021/10/04 13:15:17;;;;;;;1.57;1.43;;;17.60;99.90;;;;;;5018918;28;20437;-69
2021/10/04 13:17:44;;;;;;;1.47;1.30;;;17.60;99.90;;;;;;5018605;28;20456;-69
2021/10/04 13:20:12;;;;;;;1.40;1.30;;;17.70;99.90;;;;;;5019422;28;20453;-69
2021/10/04 13:22:38;;;;;;;1.50;1.50;;;17.70;99.90;;;;;;5019445;28;20472;-69
2021/10/04 13:25:10;;;;;;;2.27;1.30;;;17.70;99.90;;;;;;5018808;28;20477;-69
2021/10/04 13:27:37;;;;;;;1.10;1.10;;;17.80;99.90;;;;;;5018163;28;20999;-68
2021/10/04 13:30:05;;;;;;;1.53;1.53;;;17.80;99.90;;;;;;5018481;28;20457;-69
2021/10/04 13:32:32;;;;;;;1.50;1.40;;;17.80;99.90;;;;;;5018561;28;20848;-69
2021/10/04 13:34:58;;;;;;;2.17;1.27;;;17.80;99.90;;;;;;5018295;28;20453;-69
2021/10/04 13:37:26;;;;;;;1.43;1.40;;;17.80;99.90;;;;;;5018609;28;20452;-68
2021/10/04 13:39:53;;;;;;;1.43;1.33;;;17.70;99.90;;;;;;5018354;28;20464;-68
2021/10/04 13:42:21;;;;;;;1.60;1.50;;;17.50;99.90;;;;;;5018135;28;20472;-68
2021/10/04 13:44:48;;;;;;;1.60;1.57;;;17.50;99.90;;;;;;5018136;28;20457;-69
2021/10/04 13:47:15;;;;;;;1.70;1.60;;;17.30;99.90;;;;;;5018321;28;20456;-69
2021/10/04 13:49:41;;;;;;;1.70;1.60;;;17.30;99.90;;;;;;5018417;28;20456;-69
2021/10/04 13:52:08;;;;;;;2.30;1.90;;;17.40;99.90;;;;;;5018547;28;20872;-69
2021/10/04 13:54:35;;;;;;;1.33;1.33;;;17.40;99.90;;;;;;5021994;28;20522;-69
2021/10/04 13:57:02;;;;;;;1.20;1.20;;;17.40;99.90;;;;;;5034009;28;20459;-69
2021/10/04 13:59:30;;;;;;;1.10;1.10;;;17.50;99.90;;;;;;5031115;28;20453;-68
2021/10/04 14:01:56;;;;;;;1.10;1.10;;;17.60;99.90;;;;;;5019806;28;20484;-69
2021/10/04 14:04:23;;;;;;;3.20;1.33;;;17.70;99.90;;;;;;5018840;28;20452;-67
2021/10/04 14:06:50;;;;;;;1.40;1.30;;;17.60;99.90;;;;;;5018560;28;20472;-68
2021/10/04 14:09:16;;;;;;;1.50;1.50;;;17.60;99.90;;;;;;5018565;28;20453;-68
2021/10/04 14:11:43;;;;;;;1.80;1.70;;;17.80;99.90;;;;;;5017834;28;20472;-67
2021/10/04 14:14:10;;;;;;;1.37;1.37;;;17.70;99.90;;;;;;5017558;28;20800;-69
2021/10/04 14:16:38;;;;;;;1.23;1.23;;;17.70;99.90;;;;;;5017700;28;20453;-68
2021/10/04 14:19:04;;;;;;;2.17;2.07;;;17.70;99.90;;;;;;5017649;28;20457;-68
2021/10/04 14:21:31;;;;;;;1.40;1.40;;;17.70;99.90;;;;;;5018038;28;20484;-69
2021/10/04 14:23:58;;;;;;;2.37;1.60;;;17.70;99.90;;;;;;5017733;28;20463;-69
2021/10/04 14:26:25;;;;;;;1.43;1.43;;;17.70;99.90;;;;;;5019164;28;20477;-68
2021/10/04 14:28:52;;;;;;;1.70;1.33;;;17.70;99.90;;;;;;5017878;28;20511;-68
2021/10/04 14:31:19;;;;;;;1.00;1.00;;;17.70;99.90;;;;;;5017370;28;20962;-67
2021/10/04 14:33:47;;;;;;;1.23;1.23;;;17.70;99.90;;;;;;5017753;28;20459;-67
2021/10/04 14:36:14;;;;;;;1.30;1.30;;;17.60;99.90;;;;;;5017667;28;20453;-67
2021/10/04 14:38:40;;;;;;;2.00;1.80;;;17.50;99.90;;;;;;5017845;28;20445;-67
2021/10/04 14:41:07;;;;;;;1.90;1.33;;;17.50;99.90;;;;;;5016899;28;20472;-67
2021/10/04 14:43:34;;;;;;;1.50;1.50;;;17.40;99.90;;;;;;5018524;28;20869;-67
2021/10/04 14:46:01;;;;;;;1.43;1.43;;;17.40;99.90;;;;;;5018299;28;20492;-67
2021/10/04 14:48:27;;;;;;;1.70;1.60;;;17.40;99.90;;;;;;5017761;28;20453;-67
2021/10/04 14:50:55;;;;;;;1.43;1.37;;;17.30;99.90;;;;;;5017871;28;20861;-69
2021/10/04 14:53:22;;;;;;;1.10;1.10;;;17.30;99.90;;;;;;5017940;28;20464;-68
2021/10/04 14:55:49;;;;;;;1.53;1.53;;;17.30;99.90;;;;;;5017402;28;20460;-68
2021/10/04 14:58:15;;;;;;;1.30;1.30;;;17.30;99.90;;;;;;5017949;28;20475;-68
2021/10/04 15:00:42;;;;;;;1.90;1.80;;;17.20;99.90;;;;;;5017118;28;20487;-69
2021/10/04 15:03:09;;;;;;;4.07;3.70;;;17.10;99.90;;;;;;5017210;28;20442;-69
2021/10/04 15:05:35;;;;;;;6.13;4.87;;;17.10;99.90;;;;;;5016713;28;20862;-69
2021/10/04 15:08:04;;;;;;;3.90;3.70;;;17.10;99.90;;;;;;5017035;28;20457;-68
2021/10/04 15:10:35;;;;;;;3.80;3.50;;;17.00;99.90;;;;;;5017024;28;20464;-69
2021/10/04 15:13:01;;;;;;;3.57;3.27;;;16.90;99.90;;;;;;5016925;28;20437;-68
2021/10/04 15:15:28;;;;;;;2.40;2.30;;;16.90;99.90;;;;;;5016713;28;20452;-70
2021/10/04 15:17:55;;;;;;;2.50;2.30;;;16.60;99.90;;;;;;5016712;28;20793;-68
2021/10/04 15:20:21;;;;;;;2.20;2.10;;;16.70;99.90;;;;;;5016383;28;20456;-70
2021/10/04 15:22:48;;;;;;;2.23;2.13;;;16.60;99.90;;;;;;5017026;28;20461;-69
2021/10/04 15:25:16;;;;;;;2.03;1.93;;;16.60;99.90;;;;;;5017093;28;20456;-70
2021/10/04 15:27:43;;;;;;;2.23;2.13;;;16.60;99.90;;;;;;5016438;28;20461;-69
2021/10/04 15:30:10;;;;;;;2.07;1.97;;;16.60;99.90;;;;;;5016401;28;20460;-70
2021/10/04 15:32:37;;;;;;;2.10;2.00;;;16.60;99.90;;;;;;5015535;28;20477;-70
2021/10/04 15:35:04;;;;;;;3.30;3.10;;;16.50;99.90;;;;;;5015992;28;20453;-70
2021/10/04 15:37:31;;;;;;;2.50;2.40;;;16.40;99.90;;;;;;5015879;28;20448;-69
2021/10/04 15:39:58;;;;;;;2.40;2.30;;;16.30;99.90;;;;;;5016353;28;20464;-69
2021/10/04 15:42:26;;;;;;;2.50;2.30;;;16.30;99.90;;;;;;5016147;28;20574;-70
2021/10/04 15:44:53;;;;;;;2.30;2.10;;;16.30;99.90;;;;;;5016817;28;20866;-69
2021/10/04 15:47:22;;;;;;;1.87;1.83;;;16.20;99.90;;;;;;5021176;28;20481;-69
2021/10/04 15:49:49;;;;;;;2.57;2.47;;;16.20;99.90;;;;;;5027780;28;20484;-69
2021/10/04 15:52:16;;;;;;;2.00;1.90;;;16.20;99.90;;;;;;5020475;28;20472;-69
2021/10/04 15:54:42;;;;;;;2.57;1.67;;;16.10;99.90;;;;;;5015827;28;20453;-69
2021/10/04 15:57:09;;;;;;;2.33;1.90;;;16.10;99.90;;;;;;5017894;28;20461;-69
2021/10/04 15:59:37;;;;;;;1.73;1.63;;;16.00;99.90;;;;;;5015331;28;20967;-69
2021/10/04 16:02:05;;;;;;;3.23;1.83;;;15.90;99.90;;;;;;5015248;28;20549;-69
2021/10/04 16:04:32;;;;;;;1.77;1.70;;;15.90;99.90;;;;;;5015826;28;20461;-69
2021/10/04 16:06:59;;;;;;;3.87;1.60;;;15.90;99.90;;;;;;5015658;28;20504;-69
2021/10/04 16:09:26;;;;;;;1.87;1.70;;;15.80;99.90;;;;;;5015689;28;20820;-69
2021/10/04 16:11:53;;;;;;;1.87;1.60;;;15.80;99.90;;;;;;5015668;28;20504;-68
2021/10/04 16:14:20;;;;;;;1.93;1.70;;;15.80;99.90;;;;;;5015311;28;20456;-69
2021/10/04 16:16:48;;;;;;;1.93;1.83;;;15.80;99.90;;;;;;5015670;28;20451;-69
2021/10/04 16:19:15;;;;;;;1.80;1.70;;;15.80;99.90;;;;;;5015525;28;20556;-69
2021/10/04 16:21:42;;;;;;;2.10;2.00;;;15.70;99.90;;;;;;5015338;28;20476;-69
2021/10/04 16:24:12;;;;;;;2.70;2.50;;;15.70;99.90;;;;;;5014725;28;20457;-69
2021/10/04 16:26:40;;;;;;;6.40;2.33;;;15.60;99.90;;;;;;5015545;28;20484;-69
2021/10/04 16:29:06;;;;;;;3.33;2.50;;;15.60;99.90;;;;;;5015849;28;20457;-69
2021/10/04 16:31:33;;;;;;;2.93;2.23;;;15.50;99.90;;;;;;5014888;28;20841;-69
2021/10/04 16:34:01;;;;;;;2.10;2.00;;;15.40;99.90;;;;;;5015362;28;20453;-68
2021/10/04 16:36:29;;;;;;;2.47;2.27;;;15.40;99.90;;;;;;5015135;28;20475;-69
2021/10/04 16:38:56;;;;;;;2.57;2.37;;;15.40;99.90;;;;;;5015326;28;20492;-69
2021/10/04 16:41:23;;;;;;;2.27;2.17;;;15.40;99.90;;;;;;5014847;28;20484;-69
2021/10/04 16:43:51;;;;;;;2.90;2.70;;;15.40;99.90;;;;;;5014439;28;20463;-69
2021/10/04 16:46:18;;;;;;;2.00;1.90;;;15.40;99.90;;;;;;5015222;28;20497;-69
2021/10/04 16:48:45;;;;;;;2.53;1.93;;;15.30;99.90;;;;;;5015801;28;20464;-69
2021/10/04 16:51:13;;;;;;;2.30;2.13;;;15.30;99.90;;;;;;5015153;28;20473;-69
2021/10/04 16:53:41;;;;;;;2.23;2.13;;;15.30;99.90;;;;;;5014710;28;20460;-69
2021/10/04 16:56:09;;;;;;;2.53;2.43;;;15.30;99.90;;;;;;5015019;28;20511;-68